Time;durP1;ratioP1;P1;durP2;ratioP2;P2;SDS_P1;SDS_P2;PMS_P1;PMS_P2;Temp;Humidity;BMP_temperature;BMP_pressure;BME280_temperature;BME280_humidity;BME280_pressure;Samples;Min_cycle;Max_cycle;Signal;HPM_P1;HPM_P2
2023/07/23 00:01:24;;;;;;;2.45;1.95;;;;;16.80;94015.00;;;;7397600;19;20152;-80
2023/07/23 00:04:00;;;;;;;2.83;2.05;;;;;16.60;94015.00;;;;7395326;19;20144;-78
2023/07/23 00:06:34;;;;;;;4.28;2.00;;;;;16.60;94020.00;;;;7396245;19;20165;-78
2023/07/23 00:09:15;;;;;;;3.20;1.70;;;;;16.70;94012.00;;;;7396599;19;20166;-77
2023/07/23 00:11:43;;;;;;;3.65;2.25;;;;;16.70;94011.00;;;;7399261;19;20629;-78
2023/07/23 00:14:19;;;;;;;2.53;2.08;;;;;16.70;94014.00;;;;7399509;19;20161;-76
2023/07/23 00:16:47;;;;;;;3.38;2.20;;;;;16.60;94011.00;;;;7397467;19;20143;-77
2023/07/23 00:19:23;;;;;;;4.20;2.75;;;;;16.70;94010.00;;;;7400004;19;20140;-78
2023/07/23 00:21:57;;;;;;;2.33;1.85;;;;;16.90;94009.00;;;;7395932;19;20146;-81
2023/07/23 00:24:31;;;;;;;2.40;2.00;;;;;16.90;94017.00;;;;7398479;19;20124;-76
2023/07/23 00:26:59;;;;;;;2.63;1.98;;;;;16.70;94008.00;;;;7396572;19;20159;-78
2023/07/23 00:29:33;;;;;;;4.82;2.50;;;;;16.70;94006.00;;;;7399378;19;20126;-77
2023/07/23 00:32:09;;;;;;;3.40;1.95;;;;;16.70;94012.00;;;;7397946;19;20140;-76
2023/07/23 00:34:44;;;;;;;2.63;2.08;;;;;16.60;94003.00;;;;7398507;19;20726;-76
2023/07/23 00:37:20;;;;;;;2.88;2.30;;;;;16.70;94001.00;;;;7397250;19;20137;-78
2023/07/23 00:39:55;;;;;;;4.57;1.90;;;;;16.60;94002.00;;;;7398776;19;20133;-77
2023/07/23 00:42:30;;;;;;;3.83;2.30;;;;;16.60;94003.00;;;;7398893;19;20249;-79
2023/07/23 00:44:58;;;;;;;2.80;2.30;;;;;16.50;94000.00;;;;7399457;19;20176;-78
2023/07/23 00:47:32;;;;;;;2.95;2.50;;;;;16.40;94011.00;;;;7397505;19;20140;-79
2023/07/23 00:50:02;;;;;;;4.47;2.30;;;;;16.40;94005.00;;;;7395292;19;20141;-77
2023/07/23 00:52:37;;;;;;;3.35;2.30;;;;;16.50;93999.00;;;;7399165;19;20128;-77
2023/07/23 00:55:14;;;;;;;3.83;2.20;;;;;16.50;94000.00;;;;7398409;19;20173;-77
2023/07/23 00:57:53;;;;;;;3.80;2.22;;;;;16.60;93997.00;;;;7396549;19;20214;-78
2023/07/23 01:00:21;;;;;;;2.38;1.95;;;;;16.40;93994.00;;;;7397762;19;20148;-78
2023/07/23 01:02:56;;;;;;;3.22;2.20;;;;;16.60;93987.00;;;;7397546;19;21008;-78
2023/07/23 01:05:32;;;;;;;2.28;2.00;;;;;16.50;93991.00;;;;7397670;19;20148;-77
2023/07/23 01:08:14;;;;;;;4.05;2.20;;;;;16.50;93989.00;;;;7394030;19;20641;-77
2023/07/23 01:10:48;;;;;;;3.35;2.05;;;;;16.60;93978.00;;;;7396874;19;20540;-77
2023/07/23 01:13:23;;;;;;;2.75;2.08;;;;;16.40;93986.00;;;;7396131;19;20136;-77
2023/07/23 01:15:54;;;;;;;3.40;2.13;;;;;16.50;93983.00;;;;7398164;19;20204;-76
2023/07/23 01:18:28;;;;;;;2.17;1.83;;;;;16.60;93974.00;;;;7395186;19;20158;-76
2023/07/23 01:20:56;;;;;;;5.20;2.10;;;;;16.60;93975.00;;;;7394731;19;20152;-74
2023/07/23 01:23:32;;;;;;;3.95;2.30;;;;;16.50;93977.00;;;;7398214;19;20461;-79
2023/07/23 01:26:00;;;;;;;2.50;2.17;;;;;16.40;93979.00;;;;7396696;19;20141;-78
2023/07/23 01:28:34;;;;;;;2.30;2.10;;;;;16.50;93982.00;;;;7392789;19;20144;-76
2023/07/23 01:31:12;;;;;;;3.35;2.30;;;;;16.30;93968.00;;;;7396705;19;20135;-77
2023/07/23 01:33:44;;;;;;;2.92;2.15;;;;;16.30;93968.00;;;;7395725;19;20136;-76
2023/07/23 01:36:20;;;;;;;7.60;2.33;;;;;16.40;93962.00;;;;7395372;19;20144;-77
2023/07/23 01:38:49;;;;;;;2.35;2.08;;;;;16.20;93965.00;;;;7395051;19;20220;-75
2023/07/23 01:41:25;;;;;;;4.63;2.53;;;;;16.10;93970.00;;;;7394049;19;20223;-78
2023/07/23 01:44:01;;;;;;;2.47;2.25;;;;;16.10;93969.00;;;;7395336;19;20144;-77
2023/07/23 01:46:35;;;;;;;3.08;1.83;;;;;16.00;93962.00;;;;7393549;19;20208;-76
2023/07/23 01:49:04;;;;;;;3.40;2.15;;;;;16.00;93954.00;;;;7394338;19;20596;-79
2023/07/23 01:51:34;;;;;;;3.15;2.45;;;;;16.00;93952.00;;;;7395076;19;20139;-77
2023/07/23 01:54:09;;;;;;;2.88;2.28;;;;;16.10;93952.00;;;;7392844;19;20656;-76
2023/07/23 01:56:38;;;;;;;5.97;2.35;;;;;16.00;93950.00;;;;7394523;19;20152;-79
2023/07/23 01:59:13;;;;;;;3.25;2.28;;;;;16.00;93948.00;;;;7393595;19;20144;-80
2023/07/23 02:01:50;;;;;;;4.93;2.53;;;;;16.00;93951.00;;;;7392088;19;20192;-76
2023/07/23 02:04:19;;;;;;;4.25;2.30;;;;;15.90;93960.00;;;;7394905;19;20160;-77
2023/07/23 02:07:04;;;;;;;3.00;1.83;;;;;16.00;93955.00;;;;7395782;19;20136;-78
2023/07/23 02:09:39;;;;;;;3.15;2.20;;;;;16.10;93946.00;;;;7389988;19;20166;-77
2023/07/23 02:12:15;;;;;;;2.40;1.75;;;;;16.10;93952.00;;;;7393470;19;20212;-81
2023/07/23 02:14:47;;;;;;;3.55;2.28;;;;;16.00;93945.00;;;;7393323;19;20141;-79
2023/07/23 02:17:21;;;;;;;2.45;2.10;;;;;16.00;93950.00;;;;7398900;19;20163;-78
2023/07/23 02:19:49;;;;;;;2.70;2.20;;;;;15.90;93948.00;;;;7399903;19;20157;-75
2023/07/23 02:22:24;;;;;;;3.97;2.10;;;;;15.90;93957.00;;;;7400795;19;20144;-78
2023/07/23 02:25:00;;;;;;;3.40;2.00;;;;;15.70;93957.00;;;;7400689;19;20554;-80
2023/07/23 02:27:36;;;;;;;2.53;2.10;;;;;15.60;93953.00;;;;7402496;19;20143;-76
2023/07/23 02:30:05;;;;;;;2.40;2.08;;;;;15.50;93962.00;;;;7398717;19;20145;-79
2023/07/23 02:32:40;;;;;;;2.25;2.03;;;;;15.50;93954.00;;;;7400683;19;20200;-77
2023/07/23 02:35:20;;;;;;;3.45;2.40;;;;;15.50;93955.00;;;;7399236;19;20144;-78
2023/07/23 02:37:55;;;;;;;3.30;2.50;;;;;15.50;93963.00;;;;7401073;19;20269;-76
2023/07/23 02:40:32;;;;;;;2.85;2.45;;;;;15.50;93956.00;;;;7400345;19;20149;-76
2023/07/23 02:43:11;;;;;;;3.22;2.45;;;;;15.40;93958.00;;;;7402115;19;20618;-77
2023/07/23 02:45:39;;;;;;;2.38;2.17;;;;;15.50;93960.00;;;;7400950;19;20473;-77
2023/07/23 02:48:14;;;;;;;3.20;2.13;;;;;15.30;93964.00;;;;7401997;19;20211;-79
2023/07/23 02:50:48;;;;;;;2.60;2.10;;;;;15.30;93959.00;;;;7398793;19;20617;-80
2023/07/23 02:53:26;;;;;;;2.78;1.98;;;;;15.20;93960.00;;;;7399690;19;20616;-79
2023/07/23 02:56:02;;;;;;;2.80;2.22;;;;;15.30;93963.00;;;;7399795;19;20152;-77
2023/07/23 02:58:37;;;;;;;3.20;2.17;;;;;15.20;93960.00;;;;7400018;19;20227;-77
2023/07/23 03:01:11;;;;;;;3.28;2.30;;;;;15.40;93960.00;;;;7399542;19;20549;-78
2023/07/23 03:03:47;;;;;;;3.30;2.25;;;;;15.50;93962.00;;;;7398527;19;20149;-76
2023/07/23 03:06:21;;;;;;;3.17;2.35;;;;;15.50;93965.00;;;;7399056;19;20612;-78
2023/07/23 03:08:55;;;;;;;2.63;2.22;;;;;15.30;93956.00;;;;7396339;19;20172;-80
2023/07/23 03:11:31;;;;;;;3.15;2.15;;;;;15.30;93967.00;;;;7400359;19;20711;-76
2023/07/23 03:13:59;;;;;;;3.00;2.33;;;;;15.30;93963.00;;;;7398197;19;20519;-76
2023/07/23 03:16:34;;;;;;;3.22;2.65;;;;;15.30;93953.00;;;;7398796;19;20148;-78
2023/07/23 03:19:02;;;;;;;8.10;2.58;;;;;15.40;93963.00;;;;7400520;19;20157;-78
2023/07/23 03:21:36;;;;;;;3.33;2.22;;;;;15.40;93961.00;;;;7398540;19;20907;-79
2023/07/23 03:24:04;;;;;;;3.28;2.33;;;;;15.40;93960.00;;;;7400034;19;20144;-78
2023/07/23 03:26:39;;;;;;;4.55;2.35;;;;;15.50;93964.00;;;;7397440;19;20200;-76
2023/07/23 03:29:07;;;;;;;2.75;2.20;;;;;15.50;93957.00;;;;7397458;19;20228;-76
2023/07/23 03:31:42;;;;;;;3.28;2.40;;;;;15.50;93953.00;;;;7398942;19;20518;-77
2023/07/23 03:34:10;;;;;;;3.03;2.30;;;;;15.40;93957.00;;;;7397974;19;20153;-78
2023/07/23 03:36:44;;;;;;;3.65;2.45;;;;;15.50;93957.00;;;;7398273;19;20155;-79
2023/07/23 03:39:18;;;;;;;2.55;2.20;;;;;15.60;93956.00;;;;7398538;19;20144;-79
2023/07/23 03:41:53;;;;;;;2.95;2.10;;;;;15.50;93959.00;;;;7397848;19;20140;-77
2023/07/23 03:44:27;;;;;;;4.63;2.28;;;;;15.50;93958.00;;;;7398596;19;20132;-79
2023/07/23 03:47:15;;;;;;;4.78;2.22;;;;;15.50;93959.00;;;;7395422;19;20161;-79
2023/07/23 03:49:50;;;;;;;4.68;2.13;;;;;15.60;93960.00;;;;7397754;19;20174;-77
2023/07/23 03:52:18;;;;;;;3.42;2.30;;;;;15.60;93956.00;;;;7400561;19;20136;-77
2023/07/23 03:54:52;;;;;;;3.53;2.30;;;;;15.70;93957.00;;;;7398516;19;21113;-77
2023/07/23 03:57:19;;;;;;;5.03;2.38;;;;;15.60;93951.00;;;;7400185;19;20141;-75
2023/07/23 03:59:54;;;;;;;2.67;2.28;;;;;15.70;93952.00;;;;7398506;19;20140;-78
2023/07/23 04:02:22;;;;;;;5.43;2.60;;;;;15.60;93952.00;;;;7397909;19;20284;-77
2023/07/23 04:04:59;;;;;;;3.28;2.40;;;;;15.50;93958.00;;;;7398528;19;20148;-76
2023/07/23 04:07:38;;;;;;;2.80;2.38;;;;;15.70;93956.00;;;;7399012;19;20140;-78
2023/07/23 04:10:22;;;;;;;3.78;2.55;;;;;16.00;93957.00;;;;7397753;19;20197;-76
2023/07/23 04:12:50;;;;;;;3.33;2.45;;;;;16.10;93955.00;;;;7397663;19;20128;-77
2023/07/23 04:15:26;;;;;;;3.08;2.40;;;;;16.00;93959.00;;;;7397689;19;20132;-77
2023/07/23 04:17:57;;;;;;;3.08;2.38;;;;;16.10;93960.00;;;;7397447;19;20637;-78
2023/07/23 04:20:31;;;;;;;2.65;2.10;;;;;16.00;93959.00;;;;7396072;19;20629;-76
2023/07/23 04:22:59;;;;;;;3.85;2.20;;;;;16.10;93954.00;;;;7400503;19;20618;-78
2023/07/23 04:25:28;;;;;;;4.75;2.45;;;;;16.10;93963.00;;;;7397098;19;20145;-76
2023/07/23 04:28:07;;;;;;;4.53;2.20;;;;;16.10;93902.00;;;;7396993;19;20125;-76
2023/07/23 04:30:35;;;;;;;2.30;2.08;;;;;16.20;93961.00;;;;7395597;19;20149;-76
2023/07/23 04:33:10;;;;;;;2.92;2.20;;;;;16.20;93963.00;;;;7400107;19;20174;-78
2023/07/23 04:35:45;;;;;;;2.38;2.17;;;;;16.10;93969.00;;;;7397327;19;20152;-77
2023/07/23 04:38:12;;;;;;;3.53;2.55;;;;;16.20;93966.00;;;;7398418;19;20140;-79
2023/07/23 04:40:40;;;;;;;3.42;2.00;;;;;16.40;93977.00;;;;7398165;19;20133;-77
2023/07/23 04:43:15;;;;;;;3.92;2.30;;;;;16.30;93966.00;;;;7397040;19;20593;-78
2023/07/23 04:45:49;;;;;;;3.88;2.13;;;;;16.40;93967.00;;;;7396959;19;20635;-76
2023/07/23 04:48:25;;;;;;;2.78;2.25;;;;;16.30;93968.00;;;;7397913;19;20153;-78
2023/07/23 04:50:57;;;;;;;2.83;2.40;;;;;16.20;93974.00;;;;7396841;19;20510;-77
2023/07/23 04:53:33;;;;;;;4.40;2.45;;;;;16.20;93971.00;;;;7399039;19;20136;-78
2023/07/23 04:56:09;;;;;;;3.40;2.20;;;;;16.50;93971.00;;;;7395053;19;20121;-77
2023/07/23 04:58:49;;;;;;;3.67;2.75;;;;;16.50;93969.00;;;;7393900;19;20152;-77
2023/07/23 05:01:25;;;;;;;3.30;2.15;;;;;16.50;93971.00;;;;7397103;19;20481;-78
2023/07/23 05:03:53;;;;;;;3.58;2.33;;;;;16.50;93974.00;;;;7395065;19;20144;-79
2023/07/23 05:06:28;;;;;;;4.38;2.55;;;;;16.70;93965.00;;;;7396320;19;20140;-76
2023/07/23 05:09:10;;;;;;;2.75;2.42;;;;;17.10;93962.00;;;;7395307;19;20472;-77
2023/07/23 05:11:45;;;;;;;4.75;2.63;;;;;17.40;93960.00;;;;7395455;19;20507;-77
2023/07/23 05:14:13;;;;;;;2.90;2.17;;;;;17.60;93966.00;;;;7394698;19;20643;-77
2023/07/23 05:16:48;;;;;;;3.08;2.47;;;;;17.80;93953.00;;;;7396052;19;20164;-75
2023/07/23 05:19:16;;;;;;;3.83;2.40;;;;;18.00;93951.00;;;;7394643;19;20565;-77
2023/07/23 05:21:45;;;;;;;2.80;2.30;;;;;18.30;93945.00;;;;7394406;19;20147;-77
2023/07/23 05:24:19;;;;;;;4.00;2.28;;;;;18.60;93943.00;;;;7396505;19;20128;-78
2023/07/23 05:26:47;;;;;;;3.05;2.10;;;;;18.70;93951.00;;;;7397455;19;20620;-78
2023/07/23 05:29:26;;;;;;;2.75;2.40;;;;;18.90;93947.00;;;;7395911;19;20147;-76
2023/07/23 05:31:54;;;;;;;4.78;2.65;;;;;19.10;93953.00;;;;7395814;19;20145;-76
2023/07/23 05:34:34;;;;;;;6.07;3.28;;;;;19.40;93934.00;;;;7391860;19;20151;-77
2023/07/23 05:37:09;;;;;;;2.83;2.38;;;;;19.60;93945.00;;;;7396518;19;20162;-76
2023/07/23 05:39:45;;;;;;;3.60;2.40;;;;;19.80;93944.00;;;;7397673;19;20137;-78
2023/07/23 05:42:21;;;;;;;2.95;2.20;;;;;20.00;93937.00;;;;7395481;19;20140;-76
2023/07/23 05:44:59;;;;;;;4.22;2.33;;;;;20.20;93942.00;;;;7394981;19;20156;-77
2023/07/23 05:47:27;;;;;;;2.50;2.30;;;;;20.10;93949.00;;;;7388358;19;20137;-78
2023/07/23 05:50:05;;;;;;;4.22;2.72;;;;;20.00;93946.00;;;;7382847;19;20180;-77
2023/07/23 05:52:36;;;;;;;4.43;2.42;;;;;19.80;93948.00;;;;7391872;19;20216;-78
2023/07/23 05:55:11;;;;;;;3.05;2.67;;;;;19.80;93958.00;;;;7392913;19;20158;-79
2023/07/23 05:57:42;;;;;;;4.38;2.83;;;;;19.90;93955.00;;;;7393114;19;20166;-77
2023/07/23 06:00:16;;;;;;;2.90;2.58;;;;;19.70;93954.00;;;;7392248;19;20677;-76
2023/07/23 06:02:51;;;;;;;6.28;2.60;;;;;19.80;93966.00;;;;7393261;19;20619;-77
2023/07/23 06:05:19;;;;;;;3.80;2.40;;;;;19.80;93957.00;;;;7392119;19;20125;-76
2023/07/23 06:08:00;;;;;;;3.25;2.42;;;;;19.90;93966.00;;;;7392191;19;20473;-76
2023/07/23 06:10:35;;;;;;;2.75;2.30;;;;;19.90;93960.00;;;;7393545;19;20125;-78
2023/07/23 06:13:11;;;;;;;3.40;2.80;;;;;20.00;93965.00;;;;7393114;19;20624;-75
2023/07/23 06:15:39;;;;;;;4.38;2.50;;;;;20.00;93968.00;;;;7389936;19;20144;-76
2023/07/23 06:18:15;;;;;;;6.57;2.40;;;;;20.20;93962.00;;;;7393388;19;20138;-77
2023/07/23 06:20:48;;;;;;;4.75;2.60;;;;;20.30;93964.00;;;;7392053;19;20129;-77
2023/07/23 06:23:23;;;;;;;2.45;2.22;;;;;20.60;93961.00;;;;7395015;19;20129;-75
2023/07/23 06:25:58;;;;;;;2.40;2.15;;;;;21.00;93971.00;;;;7392878;19;20144;-78
2023/07/23 06:28:34;;;;;;;2.92;2.40;;;;;21.20;93971.00;;;;7393115;19;20149;-77
2023/07/23 06:31:09;;;;;;;4.65;2.60;;;;;21.20;93968.00;;;;7391128;19;20144;-76
2023/07/23 06:33:40;;;;;;;2.50;1.90;;;;;21.50;93960.00;;;;7393189;19;20508;-78
2023/07/23 06:36:14;;;;;;;3.67;2.03;;;;;21.20;93969.00;;;;7390028;19;21098;-79
2023/07/23 06:38:50;;;;;;;4.60;2.50;;;;;20.70;93961.00;;;;7382241;19;20137;-78
2023/07/23 06:41:27;;;;;;;4.47;2.42;;;;;20.80;93969.00;;;;7384816;19;20565;-77
2023/07/23 06:43:56;;;;;;;3.05;2.22;;;;;20.70;93964.00;;;;7391361;19;20158;-75
2023/07/23 06:46:31;;;;;;;3.83;2.38;;;;;20.90;93968.00;;;;7390543;19;20148;-78
2023/07/23 06:49:05;;;;;;;6.00;2.35;;;;;20.90;93960.00;;;;7391951;19;20616;-79
2023/07/23 06:51:32;;;;;;;4.32;2.05;;;;;21.10;93963.00;;;;7394144;19;20453;-76
2023/07/23 06:54:13;;;;;;;3.45;2.30;;;;;20.90;93964.00;;;;7391054;19;20212;-74
2023/07/23 06:56:40;;;;;;;2.78;2.20;;;;;21.20;93953.00;;;;7391147;19;20177;-76
2023/07/23 06:59:15;;;;;;;6.18;2.63;;;;;21.30;93939.00;;;;7392942;19;20128;-78
2023/07/23 07:01:50;;;;;;;3.17;2.47;;;;;21.50;93945.00;;;;7388586;19;20152;-75
2023/07/23 07:04:27;;;;;;;2.42;2.10;;;;;22.10;93953.00;;;;7390533;19;20160;-76
2023/07/23 07:07:01;;;;;;;2.80;1.98;;;;;22.10;93952.00;;;;7390983;19;20140;-80
2023/07/23 07:09:46;;;;;;;4.63;2.20;;;;;21.90;93962.00;;;;7388754;19;20184;-77
2023/07/23 07:12:26;;;;;;;2.22;1.88;;;;;21.40;93969.00;;;;7391286;19;20518;-78
2023/07/23 07:15:01;;;;;;;3.05;2.15;;;;;20.90;93976.00;;;;7391123;19;20149;-78
2023/07/23 07:17:36;;;;;;;3.42;2.13;;;;;20.10;93988.00;;;;7389851;19;20152;-79
2023/07/23 07:20:10;;;;;;;2.33;2.10;;;;;20.10;93987.00;;;;7387633;19;20129;-75
2023/07/23 07:22:45;;;;;;;2.22;1.98;;;;;20.10;93976.00;;;;7389868;19;20157;-76
2023/07/23 07:25:19;;;;;;;3.53;2.08;;;;;19.90;93977.00;;;;7389357;19;20137;-76
2023/07/23 07:27:53;;;;;;;2.30;2.08;;;;;20.00;93969.00;;;;7390276;19;20125;-76
2023/07/23 07:30:22;;;;;;;3.67;2.05;;;;;20.10;93968.00;;;;7386388;19;20627;-76
2023/07/23 07:32:57;;;;;;;2.08;1.88;;;;;19.80;93971.00;;;;7386545;19;20577;-77
2023/07/23 07:35:31;;;;;;;2.22;1.70;;;;;20.10;93967.00;;;;7391022;19;20468;-80
2023/07/23 07:37:58;;;;;;;2.80;2.00;;;;;20.40;93968.00;;;;7389480;19;20200;-82
2023/07/23 07:40:27;;;;;;;3.97;2.40;;;;;20.60;93964.00;;;;7388288;19;20141;-76
2023/07/23 07:43:02;;;;;;;2.13;1.83;;;;;20.90;93949.00;;;;7386570;19;20135;-74
2023/07/23 07:45:36;;;;;;;1.95;1.83;;;;;20.80;93961.00;;;;7389616;19;20153;-75
2023/07/23 07:48:10;;;;;;;2.60;1.75;;;;;20.50;93966.00;;;;7386814;19;20143;-74
2023/07/23 07:50:45;;;;;;;2.63;2.10;;;;;20.20;93967.00;;;;7387203;19;21646;-78
2023/07/23 07:53:13;;;;;;;2.35;1.98;;;;;19.90;93982.00;;;;7388025;19;20213;-76
2023/07/23 07:55:53;;;;;;;3.72;1.77;;;;;19.70;93972.00;;;;7388029;19;20612;-76
2023/07/23 07:58:24;;;;;;;2.50;1.90;;;;;19.80;93977.00;;;;7389074;19;20608;-77
2023/07/23 08:01:02;;;;;;;3.55;1.88;;;;;19.90;93981.00;;;;7385253;19;20152;-81
2023/07/23 08:03:32;;;;;;;2.10;1.67;;;;;19.70;93977.00;;;;7386829;19;20148;-77
2023/07/23 08:06:06;;;;;;;6.75;1.77;;;;;19.30;93975.00;;;;7388073;19;20148;-74
2023/07/23 08:08:43;;;;;;;2.25;1.70;;;;;19.40;93971.00;;;;7386234;19;20551;-76
2023/07/23 08:11:18;;;;;;;2.25;1.63;;;;;19.70;93975.00;;;;7387191;19;20133;-78
2023/07/23 08:13:47;;;;;;;2.28;1.80;;;;;19.70;93978.00;;;;7381885;19;20158;-79
2023/07/23 08:16:21;;;;;;;3.63;1.67;;;;;19.60;93977.00;;;;7388569;19;20124;-81
2023/07/23 08:18:55;;;;;;;2.40;1.90;;;;;19.80;93972.00;;;;7384536;19;20154;-78
2023/07/23 08:21:30;;;;;;;2.60;1.83;;;;;19.80;93982.00;;;;7385730;19;20494;-74
2023/07/23 08:24:05;;;;;;;2.55;1.95;;;;;19.90;93974.00;;;;7383477;19;20188;-76
2023/07/23 08:26:34;;;;;;;2.03;1.83;;;;;20.30;93972.00;;;;7385602;19;20181;-79
2023/07/23 08:29:13;;;;;;;2.30;2.08;;;;;20.30;93973.00;;;;7386734;19;20132;-75
2023/07/23 08:31:44;;;;;;;2.47;1.88;;;;;20.20;93965.00;;;;7385553;19;20163;-76
2023/07/23 08:34:22;;;;;;;1.98;1.77;;;;;20.30;93973.00;;;;7386190;19;20216;-78
2023/07/23 08:36:51;;;;;;;3.83;1.73;;;;;20.50;93969.00;;;;7386104;19;20148;-77
2023/07/23 08:39:30;;;;;;;1.85;1.60;;;;;20.70;93968.00;;;;7384978;19;20168;-78
2023/07/23 08:42:19;;;;;;;1.70;1.60;;;;;20.30;93972.00;;;;7383605;19;20204;-74
2023/07/23 08:45:27;;;;;;;6.63;1.85;;;;;20.60;93972.00;;;;7385079;19;20153;-75
2023/07/23 08:48:21;;;;;;;2.00;1.80;;;;;20.60;93964.00;;;;7386561;19;20488;-75
2023/07/23 08:50:58;;;;;;;1.65;1.45;;;;;20.70;93962.00;;;;7384413;19;20596;-77
2023/07/23 08:53:26;;;;;;;2.38;2.03;;;;;20.70;93964.00;;;;7387212;19;20152;-74
2023/07/23 08:56:01;;;;;;;4.05;1.67;;;;;20.70;93969.00;;;;7385675;19;20627;-74
2023/07/23 08:58:37;;;;;;;2.95;1.88;;;;;20.70;93972.00;;;;7384747;19;20244;-75
2023/07/23 09:01:15;;;;;;;2.45;2.05;;;;;20.80;93972.00;;;;7385060;19;20152;-77
2023/07/23 09:03:50;;;;;;;2.50;1.80;;;;;20.70;93971.00;;;;7384909;19;20159;-76
2023/07/23 09:06:29;;;;;;;1.80;1.70;;;;;20.70;93972.00;;;;7387586;19;20499;-77
2023/07/23 09:09:07;;;;;;;3.28;2.05;;;;;20.80;93976.00;;;;7383755;19;20526;-77
2023/07/23 09:11:42;;;;;;;3.65;2.28;;;;;20.80;93976.00;;;;7383936;19;20132;-77
2023/07/23 09:14:18;;;;;;;3.90;2.08;;;;;20.80;93965.00;;;;7384756;19;20124;-78
2023/07/23 09:16:53;;;;;;;2.38;2.00;;;;;20.90;93958.00;;;;7385772;19;20510;-78
2023/07/23 09:19:28;;;;;;;2.55;1.85;;;;;20.80;93963.00;;;;7386750;19;20189;-78
2023/07/23 09:22:05;;;;;;;2.42;1.98;;;;;21.10;93960.00;;;;7385314;19;20155;-75
2023/07/23 09:24:39;;;;;;;2.20;1.90;;;;;21.30;93965.00;;;;7385754;19;21844;-78
2023/07/23 09:27:16;;;;;;;2.47;1.95;;;;;21.20;93966.00;;;;7394610;19;20472;-78
2023/07/23 09:29:47;;;;;;;2.17;1.98;;;;;21.20;93967.00;;;;7393672;19;20139;-79
2023/07/23 09:32:26;;;;;;;4.75;2.17;;;;;21.50;93957.00;;;;7393442;19;20190;-76
2023/07/23 09:34:57;;;;;;;2.30;2.00;;;;;21.40;93955.00;;;;7394035;19;20719;-79
2023/07/23 09:37:37;;;;;;;6.00;2.00;;;;;21.40;93952.00;;;;7394834;19;20147;-76
2023/07/23 09:40:06;;;;;;;5.45;2.00;;;;;21.70;93945.00;;;;7394506;19;20133;-75
2023/07/23 09:42:43;;;;;;;2.10;1.90;;;;;21.90;93954.00;;;;7392257;19;20167;-75
2023/07/23 09:45:38;;;;;;;1.67;1.58;;;;;22.30;93955.00;;;;7393376;19;20490;-76
2023/07/23 09:48:17;;;;;;;2.38;1.92;;;;;22.30;93956.00;;;;7393430;19;20136;-75
2023/07/23 09:50:57;;;;;;;2.40;2.00;;;;;22.50;93935.00;;;;7393074;19;20149;-76
2023/07/23 09:53:29;;;;;;;1.98;1.77;;;;;23.80;93921.00;;;;7395005;19;20625;-74
2023/07/23 09:56:10;;;;;;;2.20;2.00;;;;;24.20;93926.00;;;;7402433;19;20132;-76
2023/07/23 09:58:51;;;;;;;2.45;2.10;;;;;24.70;93908.00;;;;7401576;19;20148;-75
2023/07/23 10:01:28;;;;;;;2.63;2.03;;;;;24.70;93930.00;;;;7400914;19;20177;-75
2023/07/23 10:03:59;;;;;;;2.97;2.05;;;;;24.70;93931.00;;;;7401771;19;20133;-76
2023/07/23 10:06:33;;;;;;;2.20;2.00;;;;;24.20;93930.00;;;;7402608;19;20152;-74
2023/07/23 10:09:09;;;;;;;2.65;2.00;;;;;24.40;93908.00;;;;7403640;19;20503;-75
2023/07/23 10:11:45;;;;;;;2.83;2.20;;;;;25.20;93895.00;;;;7402454;19;20133;-76
2023/07/23 10:14:22;;;;;;;2.47;2.00;;;;;25.40;93902.00;;;;7402218;19;20152;-77
2023/07/23 10:16:59;;;;;;;2.47;2.28;;;;;25.20;93892.00;;;;7402919;19;20125;-77
2023/07/23 10:19:27;;;;;;;2.97;2.58;;;;;25.20;93886.00;;;;7402122;19;20174;-78
2023/07/23 10:22:02;;;;;;;2.50;2.30;;;;;25.20;93889.00;;;;7401496;19;20132;-81
2023/07/23 10:24:40;;;;;;;3.53;2.53;;;;;25.10;93894.00;;;;7398502;19;20502;-79
2023/07/23 10:27:16;;;;;;;3.03;2.40;;;;;24.90;93908.00;;;;7398657;19;20131;-75
2023/07/23 10:30:18;;;;;;;3.42;2.67;;;;;25.40;93889.00;;;;7395713;19;20565;-78
2023/07/23 10:33:10;;;;;;;3.15;2.38;;;;;25.20;93891.00;;;;7394941;19;20139;-79
2023/07/23 10:35:54;;;;;;;3.30;2.58;;;;;25.70;93914.00;;;;7396769;19;20133;-78
2023/07/23 10:38:38;;;;;;;2.63;2.42;;;;;24.80;93932.00;;;;7394197;19;20144;-77
2023/07/23 10:41:12;;;;;;;4.20;2.20;;;;;24.10;93909.00;;;;7396684;19;20161;-79
2023/07/23 10:43:46;;;;;;;3.85;2.58;;;;;23.90;93926.00;;;;7398824;19;20136;-73
2023/07/23 10:46:21;;;;;;;2.60;2.25;;;;;25.00;93896.00;;;;7397045;19;20140;-74
2023/07/23 10:49:04;;;;;;;4.10;2.28;;;;;25.50;93893.00;;;;7400753;19;20124;-77
2023/07/23 10:51:42;;;;;;;4.38;2.53;;;;;25.90;93896.00;;;;7398920;19;20650;-76
2023/07/23 10:54:11;;;;;;;3.65;2.67;;;;;25.60;93883.00;;;;7396451;19;20145;-78
2023/07/23 10:56:48;;;;;;;3.50;2.25;;;;;25.90;93875.00;;;;7400820;19;20129;-78
2023/07/23 10:59:25;;;;;;;3.13;2.30;;;;;26.00;93903.00;;;;7401383;19;20129;-79
2023/07/23 11:02:05;;;;;;;3.67;2.20;;;;;26.40;93893.00;;;;7399336;19;20149;-78
2023/07/23 11:04:38;;;;;;;3.78;2.67;;;25.80;99.90;25.70;93905.00;;;;7399536;19;20147;-76
2023/07/23 11:07:27;;;;;;;5.55;2.80;;;25.70;99.90;25.10;93883.00;;;;7399228;19;20157;-78
2023/07/23 11:10:20;;;;;;;4.78;2.28;;;25.10;99.90;25.40;93893.00;;;;7397996;19;20145;-75
2023/07/23 11:12:54;;;;;;;2.65;2.35;;;24.90;99.90;24.40;93915.00;;;;7400694;19;20154;-78
2023/07/23 11:15:30;;;;;;;4.22;2.50;;;24.40;99.90;24.40;93909.00;;;;7399927;19;20217;-76
2023/07/23 11:18:09;;;;;;;4.28;2.53;;;24.00;99.90;24.60;93912.00;;;;7400829;19;20163;-78
2023/07/23 11:20:37;;;;;;;2.63;2.30;;;23.60;99.90;23.70;93908.00;;;;7400593;19;20132;-74
2023/07/23 11:23:12;;;;;;;5.28;2.28;;;23.30;99.90;23.80;93925.00;;;;7400203;19;20151;-78
2023/07/23 11:25:40;;;;;;;2.40;2.20;;;23.10;99.90;23.30;93905.00;;;;7395500;19;20604;-78
2023/07/23 11:28:20;;;;;;;3.17;2.30;;;23.00;99.90;23.20;93878.00;;;;7400660;19;20652;-75
2023/07/23 11:30:55;;;;;;;2.65;2.45;;;22.80;99.90;23.10;93911.00;;;;7399438;19;20136;-76
2023/07/23 11:33:30;;;;;;;3.10;2.63;;;22.60;99.90;23.10;93889.00;;;;7395737;19;20152;-77
2023/07/23 11:36:09;;;;;;;2.50;2.30;;;22.50;99.90;23.00;93897.00;;;;7399209;19;20148;-76
2023/07/23 11:38:43;;;;;;;2.83;2.60;;;22.40;99.90;22.90;93888.00;;;;7398572;19;20679;-77
2023/07/23 11:41:10;;;;;;;3.03;2.63;;;22.30;99.90;22.70;93891.00;;;;7398043;19;20145;-74
2023/07/23 11:43:57;;;;;;;4.00;2.28;;;22.20;99.90;22.60;93894.00;;;;7397780;19;20170;-79
2023/07/23 11:46:25;;;;;;;3.67;2.53;;;22.10;99.90;22.50;93887.00;;;;7400032;19;20189;-76
2023/07/23 11:49:02;;;;;;;6.32;2.20;;;22.00;99.90;22.30;93931.00;;;;7398311;19;20733;-78
2023/07/23 11:51:38;;;;;;;3.05;2.75;;;21.80;99.90;22.20;93879.00;;;;7400144;19;20580;-78
2023/07/23 11:54:13;;;;;;;3.58;2.05;;;21.70;99.90;22.20;93906.00;;;;7399371;19;20208;-83
2023/07/23 11:56:47;;;;;;;7.28;2.65;;;21.70;99.90;22.70;93891.00;;;;7395076;19;20129;-81
2023/07/23 11:59:22;;;;;;;3.97;2.58;;;21.60;99.90;22.50;93909.00;;;;7398449;19;20150;-77
2023/07/23 12:01:58;;;;;;;4.30;2.30;;;21.50;99.90;22.50;93882.00;;;;7398026;19;20168;-79
2023/07/23 12:04:38;;;;;;;4.13;2.25;;;21.50;99.90;22.40;93905.00;;;;7399557;19;20605;-77
2023/07/23 12:07:06;;;;;;;2.95;2.30;;;21.50;99.90;22.40;93882.00;;;;7396718;19;20273;-79
2023/07/23 12:09:48;;;;;;;3.50;2.10;;;21.50;99.90;22.30;93888.00;;;;7396763;19;20608;-76
2023/07/23 12:12:25;;;;;;;3.30;2.40;;;21.50;99.90;22.30;93877.00;;;;7398145;19;20140;-77
2023/07/23 12:15:04;;;;;;;3.85;2.42;;;21.50;99.90;22.40;93877.00;;;;7398482;19;20172;-78
2023/07/23 12:17:37;;;;;;;3.22;2.15;;;21.70;99.90;22.60;93861.00;;;;7394443;19;20485;-80
2023/07/23 12:20:09;;;;;;;3.95;2.50;;;21.70;99.90;22.90;93881.00;;;;7399455;19;20133;-77
2023/07/23 12:22:56;;;;;;;3.88;2.17;;;21.90;99.90;23.20;93853.00;;;;7399450;19;20229;-79
2023/07/23 12:25:24;;;;;;;4.40;2.45;;;22.10;99.90;23.40;93884.00;;;;7397416;19;20158;-76
2023/07/23 12:28:00;;;;;;;3.42;2.40;;;22.30;99.90;23.80;93876.00;;;;7396991;19;20641;-77
2023/07/23 12:30:34;;;;;;;4.90;2.83;;;22.60;99.90;23.80;93866.00;;;;7397102;19;20140;-78
2023/07/23 12:33:09;;;;;;;3.20;2.45;;;22.90;99.90;24.00;93860.00;;;;7396985;19;20148;-76
2023/07/23 12:35:37;;;;;;;2.97;2.67;;;23.00;99.90;24.20;93840.00;;;;7395204;19;20144;-78
2023/07/23 12:38:12;;;;;;;3.20;2.35;;;23.20;99.90;24.30;93860.00;;;;7397258;19;20524;-78
2023/07/23 12:40:46;;;;;;;3.47;2.63;;;23.40;99.90;24.30;93867.00;;;;7398966;19;20139;-79
2023/07/23 12:43:21;;;;;;;3.33;2.75;;;23.40;99.90;24.40;93864.00;;;;7397384;19;20533;-77